Weather at Nashville International Airport

Public forecast

Using degrees Fahrenheit for public forecast. Weather courtesy of forecast.io.

Current aviation weather report (METAR) for Nashville International Airport

Retrieved 2020/09/21 23:53 UTC (44 minutes ago):

KBNA 212353Z 08005KT 10SM FEW250 21/11 A3027 RMK AO2 SLP245 T02060111 10250 20206 55003

Aviation forecast (TAF) for Nashville International Airport

Retrieved 2020-09-22 00:40 UTC (0 seconds ago):

TAF KBNA 212338Z 2200/2224 10006KT P6SM SKC FM221500 16005KT P6SM SCT250